createdAt,value
2023-02-13T00:00:33.338Z,4.50
2023-02-13T00:03:00.950Z,4.25
2023-02-13T00:05:27.842Z,5.82
2023-02-13T00:07:54.686Z,11.70
2023-02-13T00:10:21.476Z,15.65
2023-02-13T00:12:48.268Z,15.35
2023-02-13T00:15:15.109Z,15.10
2023-02-13T00:17:41.881Z,15.32
2023-02-13T00:20:10.358Z,15.23
2023-02-13T00:22:38.085Z,13.57
2023-02-13T00:25:06.464Z,14.77
2023-02-13T00:27:33.313Z,13.68
2023-02-13T00:30:00.364Z,13.60
2023-02-13T00:32:27.140Z,13.18
2023-02-13T00:34:53.906Z,13.20
2023-02-13T00:37:20.728Z,12.57
2023-02-13T00:39:48.483Z,11.23
2023-02-13T00:42:15.289Z,4.75
2023-02-13T00:44:42.088Z,3.63
2023-02-13T00:47:09.688Z,3.70
2023-02-13T00:49:36.472Z,3.80
2023-02-13T00:52:03.312Z,3.88
2023-02-13T00:54:30.096Z,3.40
2023-02-13T00:56:56.936Z,3.80
2023-02-13T00:59:23.664Z,7.57
2023-02-13T01:01:52.130Z,8.75
2023-02-13T01:04:18.992Z,8.93
2023-02-13T01:06:45.759Z,8.88
2023-02-13T01:09:12.538Z,8.80
2023-02-13T01:11:39.378Z,9.13
2023-02-13T01:14:06.146Z,9.38
2023-02-13T01:16:32.924Z,10.02
2023-02-13T01:18:59.787Z,9.48
2023-02-13T01:21:26.578Z,10.13
2023-02-13T01:23:53.451Z,10.60
2023-02-13T01:26:24.369Z,10.23
2023-02-13T01:28:55.076Z,10.40
2023-02-13T01:31:22.589Z,10.50
2023-02-13T01:33:49.738Z,10.23
2023-02-13T01:36:16.565Z,10.70
2023-02-13T01:38:43.769Z,9.98
2023-02-13T01:41:11.222Z,9.75
2023-02-13T01:43:51.240Z,10.40
2023-02-13T01:46:23.145Z,10.15
2023-02-13T01:48:53.394Z,9.85
2023-02-13T01:51:27.259Z,9.77
2023-02-13T01:54:19.483Z,10.68
2023-02-13T01:56:51.904Z,10.90
2023-02-13T01:59:30.995Z,10.80
2023-02-13T02:01:59.134Z,10.43
2023-02-13T02:04:31.580Z,10.95
2023-02-13T02:07:02.710Z,10.80
2023-02-13T02:09:35.299Z,11.80
2023-02-13T02:12:08.939Z,11.02
2023-02-13T02:14:36.137Z,10.50
2023-02-13T02:17:02.954Z,9.98
2023-02-13T02:20:07.409Z,9.73
2023-02-13T02:22:45.884Z,9.38
2023-02-13T02:25:28.468Z,9.65
2023-02-13T02:28:20.323Z,10.05
2023-02-13T02:31:08.772Z,8.50
2023-02-13T02:33:57.260Z,9.10
2023-02-13T02:36:27.073Z,8.90
2023-02-13T02:39:21.321Z,8.88
2023-02-13T02:42:26.221Z,8.43
2023-02-13T02:44:53.004Z,9.85
2023-02-13T02:47:49.990Z,9.43
2023-02-13T02:50:37.844Z,9.57
2023-02-13T02:53:16.804Z,9.70
2023-02-13T02:56:17.321Z,10.00
2023-02-13T02:59:18.912Z,9.60
2023-02-13T03:02:04.720Z,9.30
2023-02-13T03:05:12.884Z,10.05
2023-02-13T03:07:39.809Z,9.15
2023-02-13T03:10:31.193Z,9.35
2023-02-13T03:13:23.643Z,9.82
2023-02-13T03:16:31.738Z,8.95
2023-02-13T03:19:17.860Z,9.52
2023-02-13T03:22:18.702Z,8.77
2023-02-13T03:25:03.432Z,9.77
2023-02-13T03:28:15.736Z,9.10
2023-02-13T03:30:51.848Z,8.77
2023-02-13T03:33:49.473Z,8.13
2023-02-13T03:37:02.943Z,8.40
2023-02-13T03:39:48.678Z,7.85
2023-02-13T03:42:34.082Z,7.88
2023-02-13T03:45:27.169Z,8.13
2023-02-13T03:47:57.613Z,7.60
2023-02-13T03:50:27.132Z,8.38
2023-02-13T03:53:10.028Z,9.05
2023-02-13T03:56:01.037Z,8.40
2023-02-13T03:58:56.036Z,8.45
2023-02-13T04:01:27.673Z,8.57
2023-02-13T04:04:00.230Z,8.63
2023-02-13T04:06:34.320Z,9.15
2023-02-13T04:11:56.425Z,8.88
2023-02-13T04:14:50.693Z,8.85
2023-02-13T04:17:36.161Z,9.30
2023-02-13T04:20:03.536Z,8.80
2023-02-13T04:22:30.379Z,8.52
2023-02-13T04:24:57.423Z,8.73
2023-02-13T04:27:27.747Z,9.05
2023-02-13T04:29:54.626Z,8.90
2023-02-13T04:32:21.557Z,8.45
2023-02-13T04:34:48.413Z,8.68
2023-02-13T04:37:15.205Z,8.43
2023-02-13T04:39:41.960Z,8.25
2023-02-13T04:42:08.797Z,8.90
2023-02-13T04:44:35.577Z,8.85
2023-02-13T04:47:02.396Z,8.18
2023-02-13T04:49:29.248Z,8.55
2023-02-13T04:51:56.048Z,8.93
2023-02-13T04:54:22.845Z,8.88
2023-02-13T04:56:49.647Z,8.57
2023-02-13T04:59:16.451Z,8.82
2023-02-13T05:01:43.341Z,8.52
2023-02-13T05:04:11.571Z,8.35
2023-02-13T05:06:38.545Z,8.25
2023-02-13T05:09:05.288Z,8.63
2023-02-13T05:11:32.078Z,8.38
2023-02-13T05:13:58.950Z,8.80
2023-02-13T05:16:25.711Z,9.10
2023-02-13T05:18:55.019Z,8.70
2023-02-13T05:21:40.856Z,8.40
2023-02-13T05:24:07.737Z,8.07
2023-02-13T05:26:34.511Z,8.82
2023-02-13T05:29:19.240Z,8.00
2023-02-13T05:31:47.215Z,7.88
2023-02-13T05:34:14.168Z,7.88
2023-02-13T05:36:41.096Z,7.72
2023-02-13T05:39:08.430Z,7.70
2023-02-13T05:41:35.414Z,7.53
2023-02-13T05:44:02.237Z,8.27
2023-02-13T05:46:29.026Z,7.72
2023-02-13T05:48:55.804Z,7.63
2023-02-13T05:51:22.983Z,7.65
2023-02-13T05:53:49.851Z,7.63
2023-02-13T05:56:16.774Z,7.32
2023-02-13T05:58:45.110Z,8.27
2023-02-13T06:01:11.920Z,7.60
2023-02-13T06:03:40.461Z,7.70
2023-02-13T06:06:07.477Z,7.43
2023-02-13T06:08:34.432Z,7.35
2023-02-13T06:11:01.905Z,7.07
2023-02-13T06:13:28.959Z,7.60
2023-02-13T06:15:55.864Z,7.28
2023-02-13T06:18:23.456Z,7.53
2023-02-13T06:20:50.467Z,7.45
2023-02-13T06:23:17.302Z,6.82
2023-02-13T06:25:44.090Z,7.03
2023-02-13T06:28:10.949Z,7.13
2023-02-13T06:30:37.922Z,6.93
2023-02-13T06:33:04.759Z,7.32
2023-02-13T06:35:31.601Z,8.70
2023-02-13T06:37:58.430Z,7.47
2023-02-13T06:40:25.425Z,7.35
2023-02-13T06:42:52.304Z,7.78
2023-02-13T06:45:19.200Z,7.40
2023-02-13T06:47:48.061Z,7.30
2023-02-13T06:50:16.689Z,7.43
2023-02-13T06:52:51.247Z,7.90
2023-02-13T06:55:18.783Z,7.45
2023-02-13T06:57:45.738Z,7.55
2023-02-13T07:00:14.572Z,7.75
2023-02-13T07:02:42.750Z,7.72
2023-02-13T07:05:10.233Z,7.05
2023-02-13T07:07:38.475Z,8.77
2023-02-13T07:10:07.354Z,8.15
2023-02-13T07:12:36.629Z,8.13
2023-02-13T07:15:08.237Z,7.57
2023-02-13T07:17:35.197Z,7.85
2023-02-13T07:20:02.568Z,7.57
2023-02-13T07:22:31.835Z,7.80
2023-02-13T07:25:00.004Z,7.55
2023-02-13T07:27:29.370Z,7.85
2023-02-13T07:29:57.696Z,7.93
2023-02-13T07:32:25.755Z,7.88
2023-02-13T07:35:01.609Z,8.68
2023-02-13T07:37:29.958Z,8.73
2023-02-13T07:39:56.859Z,8.80
2023-02-13T07:42:23.701Z,7.88
2023-02-13T07:44:50.581Z,7.18
2023-02-13T07:47:19.766Z,8.35
2023-02-13T07:49:47.040Z,7.07
2023-02-13T07:52:14.028Z,7.72
2023-02-13T07:54:47.576Z,7.97
2023-02-13T07:57:15.440Z,8.38
2023-02-13T07:59:42.387Z,9.55
2023-02-13T08:02:14.470Z,8.85
2023-02-13T08:04:42.139Z,8.73
2023-02-13T08:07:08.962Z,8.48
2023-02-13T08:09:54.592Z,7.82
2023-02-13T08:12:21.401Z,9.10
2023-02-13T08:14:49.493Z,7.50
2023-02-13T08:17:16.328Z,9.02
2023-02-13T08:19:43.150Z,9.82
2023-02-13T08:22:09.976Z,9.77
2023-02-13T08:24:36.782Z,9.10
2023-02-13T08:27:03.679Z,8.57
2023-02-13T08:29:30.515Z,7.45
2023-02-13T08:31:57.534Z,8.23
2023-02-13T08:34:24.383Z,7.90
2023-02-13T08:36:51.195Z,7.38
2023-02-13T08:39:18.009Z,7.40
2023-02-13T08:41:44.852Z,8.52
2023-02-13T08:44:11.688Z,6.43
2023-02-13T08:46:38.511Z,7.20
2023-02-13T08:49:05.375Z,6.32
2023-02-13T08:51:33.013Z,6.43
2023-02-13T08:53:59.865Z,6.05
2023-02-13T08:56:26.753Z,6.10
2023-02-13T08:58:53.528Z,6.15
2023-02-13T09:01:20.416Z,6.15
2023-02-13T09:03:47.317Z,7.57
2023-02-13T09:06:14.136Z,9.07
2023-02-13T09:08:40.932Z,8.73
2023-02-13T09:11:07.897Z,6.88
2023-02-13T09:13:37.107Z,8.20
2023-02-13T09:16:08.675Z,8.65
2023-02-13T09:18:36.128Z,8.57
2023-02-13T09:21:08.178Z,7.72
2023-02-13T09:23:40.247Z,8.80
2023-02-13T09:26:10.576Z,9.63
2023-02-13T09:28:38.142Z,8.57
2023-02-13T09:31:16.779Z,8.50
2023-02-13T09:33:45.117Z,7.70
2023-02-13T09:36:14.846Z,7.20
2023-02-13T09:38:45.655Z,7.88
2023-02-13T09:41:41.552Z,7.88
2023-02-13T09:44:34.453Z,8.00
2023-02-13T09:47:28.903Z,8.07
2023-02-13T09:50:18.652Z,7.90
2023-02-13T09:52:46.955Z,7.93
2023-02-13T09:55:19.827Z,7.30
2023-02-13T09:57:55.342Z,6.10
2023-02-13T10:00:39.478Z,6.60
2023-02-13T10:03:11.775Z,5.80
2023-02-13T10:05:55.004Z,5.65
2023-02-13T10:08:41.045Z,5.90
2023-02-13T10:11:40.890Z,6.55
2023-02-13T10:14:32.877Z,6.30
2023-02-13T10:17:09.361Z,6.10
2023-02-13T10:19:40.409Z,6.57
2023-02-13T10:22:23.602Z,6.35
2023-02-13T10:25:21.391Z,6.20
2023-02-13T10:27:57.215Z,6.18
2023-02-13T10:30:37.095Z,5.97
2023-02-13T10:33:21.166Z,6.15
2023-02-13T10:35:59.357Z,6.20
2023-02-13T10:38:31.230Z,6.43
2023-02-13T10:41:04.189Z,6.32
2023-02-13T10:43:44.890Z,6.50
2023-02-13T10:46:37.282Z,6.35
2023-02-13T10:49:27.588Z,6.10
2023-02-13T10:52:32.070Z,6.97
2023-02-13T10:55:36.530Z,6.20
2023-02-13T10:58:44.847Z,6.40
2023-02-13T11:01:31.125Z,7.03
2023-02-13T11:04:13.952Z,7.13
2023-02-13T11:06:57.670Z,6.90
2023-02-13T11:09:25.388Z,6.50
2023-02-13T11:11:53.341Z,6.80
2023-02-13T11:14:22.453Z,7.03
2023-02-13T11:17:05.983Z,6.10
2023-02-13T11:19:46.449Z,6.00
2023-02-13T11:22:16.067Z,6.85
2023-02-13T11:24:53.318Z,6.47
2023-02-13T11:27:28.470Z,5.72
2023-02-13T11:30:02.391Z,6.50
2023-02-13T11:32:34.437Z,5.63
2023-02-13T11:35:30.081Z,5.88
2023-02-13T11:38:24.255Z,5.25
2023-02-13T11:41:03.409Z,5.63
2023-02-13T11:43:35.432Z,5.30
2023-02-13T11:46:12.953Z,5.10
2023-02-13T11:48:40.381Z,5.28
2023-02-13T11:51:07.377Z,5.28
2023-02-13T11:53:39.251Z,5.30
2023-02-13T11:56:14.664Z,5.15
2023-02-13T11:58:42.502Z,5.25
2023-02-13T12:01:21.178Z,4.95
2023-02-13T12:04:14.259Z,4.75
2023-02-13T12:06:41.146Z,4.88
2023-02-13T12:09:15.913Z,5.15
2023-02-13T12:11:47.402Z,4.80
2023-02-13T12:14:27.087Z,4.63
2023-02-13T12:17:14.285Z,4.40
2023-02-13T12:19:51.070Z,4.78
2023-02-13T12:22:29.625Z,4.53
2023-02-13T12:25:37.913Z,4.70
2023-02-13T12:28:11.037Z,4.13
2023-02-13T12:30:40.552Z,4.03
2023-02-13T12:33:19.415Z,4.32
2023-02-13T12:36:14.535Z,5.05
2023-02-13T12:38:59.445Z,3.95
2023-02-13T12:41:44.818Z,4.30
2023-02-13T12:44:35.973Z,4.00
2023-02-13T12:47:16.948Z,4.10
2023-02-13T12:50:01.981Z,4.45
2023-02-13T12:52:56.877Z,3.85
2023-02-13T12:55:43.473Z,3.88
2023-02-13T12:58:13.106Z,3.88
2023-02-13T13:01:05.029Z,3.92
2023-02-13T13:03:56.954Z,4.07
2023-02-13T13:06:58.557Z,3.88
2023-02-13T13:09:51.408Z,4.15
2023-02-13T13:12:36.940Z,3.85
2023-02-13T13:15:32.856Z,4.20
2023-02-13T13:18:08.806Z,3.78
2023-02-13T13:20:58.274Z,3.58
2023-02-13T13:23:51.117Z,3.70
2023-02-13T13:26:52.097Z,3.65
2023-02-13T13:29:21.462Z,3.53
2023-02-13T13:32:06.003Z,3.75
2023-02-13T13:34:37.276Z,3.40
2023-02-13T13:37:28.404Z,3.70
2023-02-13T13:40:22.172Z,3.60
2023-02-13T13:43:31.968Z,4.00
2023-02-13T13:46:15.352Z,3.60
2023-02-13T13:49:01.318Z,3.40
2023-02-13T13:51:29.217Z,3.60
2023-02-13T13:54:05.492Z,3.10
2023-02-13T13:56:54.066Z,3.60
2023-02-13T13:59:51.359Z,3.33
2023-02-13T14:02:18.175Z,3.65
2023-02-13T14:05:19.227Z,3.20
2023-02-13T14:07:49.140Z,3.00
2023-02-13T14:10:21.957Z,2.70
2023-02-13T14:12:50.837Z,2.50
2023-02-13T14:15:38.930Z,2.60
2023-02-13T14:18:14.264Z,2.60
2023-02-13T14:20:51.716Z,2.70
2023-02-13T14:23:21.413Z,2.72
2023-02-13T14:25:48.289Z,2.40
2023-02-13T14:28:27.551Z,2.58
2023-02-13T14:31:09.056Z,2.40
2023-02-13T14:33:36.106Z,2.50
2023-02-13T14:36:20.942Z,2.30
2023-02-13T14:39:00.228Z,2.92
2023-02-13T14:41:54.192Z,2.75
2023-02-13T14:44:59.909Z,2.67
2023-02-13T14:47:35.630Z,2.80
2023-02-13T14:50:04.710Z,2.40
2023-02-13T14:52:37.462Z,2.78
2023-02-13T14:55:25.937Z,2.90
2023-02-13T14:57:56.602Z,2.72
2023-02-13T15:00:34.980Z,2.70
2023-02-13T15:03:24.374Z,2.67
2023-02-13T15:05:54.442Z,2.47
2023-02-13T15:08:25.443Z,2.72
2023-02-13T15:10:57.449Z,2.47
2023-02-13T15:13:34.053Z,2.60
2023-02-13T15:16:07.412Z,2.80
2023-02-13T15:18:52.625Z,2.65
2023-02-13T15:21:22.793Z,2.50
2023-02-13T15:23:58.786Z,2.70
2023-02-13T15:26:30.592Z,2.40
2023-02-13T15:29:02.938Z,2.60
2023-02-13T15:31:38.232Z,3.05
2023-02-13T15:34:24.375Z,3.10
2023-02-13T15:36:51.539Z,3.00
2023-02-13T15:39:23.124Z,2.95
2023-02-13T15:41:52.899Z,3.30
2023-02-13T15:44:25.529Z,3.00
2023-02-13T15:46:53.938Z,3.00
2023-02-13T15:49:24.664Z,3.00
2023-02-13T15:52:01.915Z,3.03
2023-02-13T15:54:34.308Z,2.92
2023-02-13T15:57:04.738Z,3.15
2023-02-13T15:59:36.448Z,2.83
2023-02-13T16:02:05.241Z,3.05
2023-02-13T16:04:32.791Z,3.15
2023-02-13T16:07:00.672Z,3.22
2023-02-13T16:09:31.817Z,2.92
2023-02-13T16:12:16.671Z,3.40
2023-02-13T16:14:59.972Z,3.17
2023-02-13T16:17:34.311Z,3.15
2023-02-13T16:20:17.193Z,3.33
2023-02-13T16:23:05.967Z,3.20
2023-02-13T16:25:38.532Z,3.55
2023-02-13T16:28:27.377Z,3.45
2023-02-13T16:31:01.348Z,3.38
2023-02-13T16:33:33.320Z,3.55
2023-02-13T16:36:10.418Z,3.45
2023-02-13T16:38:41.939Z,3.75
2023-02-13T16:41:17.928Z,3.35
2023-02-13T16:43:48.330Z,3.28
2023-02-13T16:46:26.594Z,3.53
2023-02-13T16:49:02.024Z,3.35
2023-02-13T16:51:38.484Z,3.50
2023-02-13T16:54:11.233Z,3.42
2023-02-13T16:56:52.743Z,3.42
2023-02-13T16:59:41.451Z,3.80
2023-02-13T17:02:32.659Z,3.67
2023-02-13T17:05:15.754Z,3.67
2023-02-13T17:07:48.277Z,3.63
2023-02-13T17:10:31.350Z,3.92
2023-02-13T17:13:01.537Z,3.95
2023-02-13T17:15:30.831Z,3.75
2023-02-13T17:17:57.678Z,4.10
2023-02-13T17:20:30.263Z,4.20
2023-02-13T17:22:59.596Z,4.05
2023-02-13T17:25:37.881Z,4.07
2023-02-13T17:28:12.496Z,4.15
2023-02-13T17:30:39.528Z,4.03
2023-02-13T17:33:10.480Z,4.30
2023-02-13T17:35:37.534Z,4.55
2023-02-13T17:38:09.671Z,4.68
2023-02-13T17:40:36.919Z,4.43
2023-02-13T17:43:04.070Z,6.25
2023-02-13T17:45:32.864Z,5.15
2023-02-13T17:47:59.890Z,5.72
2023-02-13T17:50:28.853Z,14.18
2023-02-13T17:52:56.954Z,5.70
2023-02-13T17:55:29.382Z,5.07
2023-02-13T17:57:57.766Z,6.35
2023-02-13T18:00:28.152Z,11.98
2023-02-13T18:02:56.544Z,8.57
2023-02-13T18:05:23.684Z,8.75
2023-02-13T18:07:50.687Z,7.25
2023-02-13T18:10:20.366Z,7.47
2023-02-13T18:12:48.688Z,9.07
2023-02-13T18:15:15.628Z,8.13
2023-02-13T18:17:42.529Z,6.68
2023-02-13T18:20:13.802Z,12.30
2023-02-13T18:22:41.010Z,5.90
2023-02-13T18:25:08.731Z,10.63
2023-02-13T18:27:35.646Z,9.95
2023-02-13T18:30:02.667Z,6.32
2023-02-13T18:32:29.494Z,6.38
2023-02-13T18:34:56.303Z,8.95
2023-02-13T18:37:23.178Z,5.70
2023-02-13T18:39:49.969Z,6.53
2023-02-13T18:42:18.916Z,7.32
2023-02-13T18:44:45.728Z,6.07
2023-02-13T18:47:12.722Z,6.75
2023-02-13T18:49:39.716Z,7.80
2023-02-13T18:52:06.753Z,6.35
2023-02-13T18:54:33.730Z,8.50
2023-02-13T18:57:00.596Z,12.15
2023-02-13T18:59:27.448Z,8.48
2023-02-13T19:01:54.246Z,8.55
2023-02-13T19:04:21.068Z,8.27
2023-02-13T19:06:48.583Z,8.30
2023-02-13T19:09:15.425Z,8.07
2023-02-13T19:11:42.872Z,11.13
2023-02-13T19:14:12.740Z,8.50
2023-02-13T19:16:39.524Z,8.20
2023-02-13T19:19:07.702Z,8.95
2023-02-13T19:21:37.360Z,8.73
2023-02-13T19:24:07.835Z,8.48
2023-02-13T19:26:34.982Z,8.95
2023-02-13T19:29:01.766Z,9.35
2023-02-13T19:31:31.903Z,10.25
2023-02-13T19:34:00.574Z,10.23
2023-02-13T19:36:28.948Z,9.82
2023-02-13T19:39:03.028Z,12.00
2023-02-13T19:43:59.370Z,10.60
2023-02-13T19:46:31.504Z,11.05
2023-02-13T19:48:59.257Z,10.93
2023-02-13T19:51:30.262Z,10.85
2023-02-13T19:54:06.626Z,11.73
2023-02-13T19:56:36.554Z,12.63
2023-02-13T19:59:03.977Z,13.88
2023-02-13T20:01:31.554Z,13.98
2023-02-13T20:03:58.762Z,11.60
2023-02-13T20:06:35.800Z,12.95
2023-02-13T20:09:06.774Z,12.82
2023-02-13T20:11:33.638Z,13.73
2023-02-13T20:14:05.468Z,13.93
2023-02-13T20:16:35.419Z,12.50
2023-02-13T20:19:07.021Z,12.27
2023-02-13T20:21:34.959Z,11.80
2023-02-13T20:24:06.849Z,11.05
2023-02-13T20:26:34.772Z,11.27
2023-02-13T20:29:02.223Z,10.50
2023-02-13T20:31:30.245Z,10.80
2023-02-13T20:33:58.063Z,11.80
2023-02-13T20:36:30.621Z,13.77
2023-02-13T20:39:03.088Z,14.88
2023-02-13T20:41:33.487Z,21.05
2023-02-13T20:44:03.575Z,18.40
2023-02-13T20:46:35.922Z,14.85
2023-02-13T20:49:02.795Z,11.82
2023-02-13T20:51:31.489Z,12.00
2023-02-13T20:54:00.329Z,11.32
2023-02-13T20:56:28.452Z,11.13
2023-02-13T20:58:57.812Z,10.32
2023-02-13T21:01:26.420Z,11.68
2023-02-13T21:03:55.061Z,12.50
2023-02-13T21:06:36.379Z,11.18
2023-02-13T21:09:05.361Z,10.93
2023-02-13T21:11:34.421Z,10.45
2023-02-13T21:14:01.873Z,10.93
2023-02-13T21:16:31.713Z,11.20
2023-02-13T21:19:00.192Z,10.80
2023-02-13T21:21:29.805Z,11.93
2023-02-13T21:23:59.420Z,11.15
2023-02-13T21:26:27.337Z,11.57
2023-02-13T21:28:54.325Z,11.10
2023-02-13T21:31:25.556Z,11.57
2023-02-13T21:33:52.660Z,11.05
2023-02-13T21:36:19.682Z,11.15
2023-02-13T21:38:46.583Z,10.70
2023-02-13T21:41:18.645Z,11.60
2023-02-13T21:43:49.101Z,11.95
2023-02-13T21:46:17.571Z,11.73
2023-02-13T21:48:45.550Z,10.88
2023-02-13T21:51:16.299Z,10.57
2023-02-13T21:53:44.276Z,11.18
2023-02-13T21:56:13.697Z,11.15
2023-02-13T21:58:41.763Z,11.50
2023-02-13T22:01:25.502Z,10.65
2023-02-13T22:04:00.337Z,11.00
2023-02-13T22:06:29.625Z,12.05
2023-02-13T22:09:08.558Z,11.27
2023-02-13T22:11:36.164Z,11.93
2023-02-13T22:14:05.369Z,12.32
2023-02-13T22:16:34.622Z,12.38
2023-02-13T22:19:03.460Z,11.90
2023-02-13T22:21:32.089Z,12.98
2023-02-13T22:23:59.377Z,12.38
2023-02-13T22:26:35.154Z,11.52
2023-02-13T22:29:08.248Z,12.05
2023-02-13T22:31:35.882Z,11.90
2023-02-13T22:34:05.045Z,11.07
2023-02-13T22:36:40.541Z,11.20
2023-02-13T22:39:09.141Z,11.25
2023-02-13T22:41:36.004Z,10.43
2023-02-13T22:44:02.909Z,10.52
2023-02-13T22:46:32.417Z,10.90
2023-02-13T22:48:59.816Z,10.75
2023-02-13T22:51:30.027Z,10.60
2023-02-13T22:53:58.079Z,10.57
2023-02-13T22:56:26.569Z,9.88
2023-02-13T22:58:53.440Z,10.48
2023-02-13T23:01:23.657Z,10.20
2023-02-13T23:03:50.530Z,9.95
2023-02-13T23:06:17.867Z,10.15
2023-02-13T23:08:45.405Z,10.63
2023-02-13T23:11:33.102Z,9.52
2023-02-13T23:14:02.769Z,10.50
2023-02-13T23:16:49.688Z,10.45
2023-02-13T23:19:16.610Z,10.75
2023-02-13T23:21:43.411Z,10.27
2023-02-13T23:24:10.648Z,9.95
2023-02-13T23:26:37.425Z,10.02
2023-02-13T23:29:04.279Z,10.10
2023-02-13T23:31:31.654Z,9.95
2023-02-13T23:33:58.551Z,9.35
2023-02-13T23:36:25.445Z,9.25
2023-02-13T23:38:52.253Z,10.25
2023-02-13T23:41:19.065Z,9.48
2023-02-13T23:43:45.851Z,9.93
2023-02-13T23:46:12.730Z,9.77
2023-02-13T23:48:39.552Z,9.25
2023-02-13T23:51:06.352Z,10.27
2023-02-13T23:53:36.151Z,9.07
2023-02-13T23:56:04.047Z,9.38
2023-02-13T23:58:31.050Z,9.02
